< < Back
Terminal Aerodrome Forecast


Current Version              Previous Versions:   1  2  3  4  5  6  7  8  9  

Terminal Aerodrome Forecast

486
FTUS42 KGSP 240915 AAA
TAFAND
TAF AMD
KAND 240915Z 2409/2506 21008KT P6SM BKN020 BKN035
      TEMPO 2410/2414 BKN015 BKN030
     FM241600 22015G23KT P6SM BKN020
     FM241700 22014G22KT P6SM SCT027
     FM242200 24008KT P6SM SCT250
     FM250000 24004KT P6SM SCT050=



Latest METAR

489
SAUS70 KWBC 242300
MTRAND
METAR KAND 242256Z AUTO 20005KT 10SM CLR 17/13 A2983 RMK AO2 PRESRR
SLP097 T01720133


USA.gov is the U.S. government's official web portal to all federal, state and local government web resources and services.